Time;durP1;ratioP1;P1;durP2;ratioP2;P2;SDS_P1;SDS_P2;PMS_P1;PMS_P2;Temp;Humidity;BMP_temperature;BMP_pressure;BME280_temperature;BME280_humidity;BME280_pressure;Samples;Min_cycle;Max_cycle;Signal;HPM_P1;HPM_P2
2022/03/12 00:00:09;;;;;;;;;;;;;;;17.75;57.93;99431.97;2082835;28;20150;-56
2022/03/12 00:01:10;;;;;;;;;;;;;;;17.74;57.95;99438.47;2083087;28;19979;-56
2022/03/12 00:02:10;;;;;;;;;;;;;;;17.73;58.01;99436.72;2090150;28;19908;-56
2022/03/12 00:03:10;;;;;;;;;;;;;;;17.73;57.75;99428.56;2092052;28;19918;-56
2022/03/12 00:04:11;;;;;;;;;;;;;;;17.73;57.98;99431.28;2089428;28;20278;-55
2022/03/12 00:05:12;;;;;;;;;;;;;;;17.73;57.78;99431.28;2090302;28;20155;-55
2022/03/12 00:06:12;;;;;;;;;;;;;;;17.73;57.96;99431.28;2089995;28;19916;-56
2022/03/12 00:07:15;;;;;;;;;;;;;;;17.72;57.85;99429.59;2095725;28;20313;-55
2022/03/12 00:08:16;;;;;;;;;;;;;;;17.72;57.96;99433.16;2086758;28;19923;-55
2022/03/12 00:09:16;;;;;;;;;;;;;;;17.72;57.80;99424.97;2092906;28;19911;-55
2022/03/12 00:10:19;;;;;;;;;;;;;;;17.72;58.11;99424.13;2092112;28;20217;-55
2022/03/12 00:11:20;;;;;;;;;;;;;;;17.70;57.86;99423.44;2084947;28;19929;-55
2022/03/12 00:12:22;;;;;;;;;;;;;;;17.70;57.83;99426.16;2084563;28;20366;-55
2022/03/12 00:13:22;;;;;;;;;;;;;;;17.70;57.86;99426.16;2086937;28;20222;-56
2022/03/12 00:14:23;;;;;;;;;;;;;;;17.69;57.97;99428.03;2091196;28;19931;-55
2022/03/12 00:15:23;;;;;;;;;;;;;;;17.69;57.94;99425.31;2090826;28;19993;-56
2022/03/12 00:16:24;;;;;;;;;;;;;;;17.69;58.08;99424.44;2090314;28;20255;-54
2022/03/12 00:17:25;;;;;;;;;;;;;;;17.69;57.84;99422.56;2094056;28;20551;-55
2022/03/12 00:18:30;;;;;;;;;;;;;;;17.69;57.90;99419.00;2092337;28;20010;-56
2022/03/12 00:19:32;;;;;;;;;;;;;;;17.68;57.96;99423.56;2090011;28;20746;-55
2022/03/12 00:20:33;;;;;;;;;;;;;;;17.69;57.87;99421.72;2090031;28;19920;-56
2022/03/12 00:21:36;;;;;;;;;;;;;;;17.69;57.89;99424.44;2093312;28;19967;-56
2022/03/12 00:22:37;;;;;;;;;;;;;;;17.69;58.06;99424.44;2089458;28;19954;-54
2022/03/12 00:23:38;;;;;;;;;;;;;;;17.68;57.93;99425.44;2090368;28;20288;-57
2022/03/12 00:24:40;;;;;;;;;;;;;;;17.68;57.92;99414.53;2090379;28;19928;-54
2022/03/12 00:25:43;;;;;;;;;;;;;;;17.68;58.18;99414.53;2092305;28;19931;-56
2022/03/12 00:26:46;;;;;;;;;;;;;;;17.66;58.00;99413.84;2084674;28;20176;-56
2022/03/12 00:27:47;;;;;;;;;;;;;;;17.67;57.93;99415.56;2079861;28;20969;-55
2022/03/12 00:28:47;;;;;;;;;;;;;;;17.66;58.12;99411.97;2088644;28;19920;-55
2022/03/12 00:29:48;;;;;;;;;;;;;;;17.66;58.23;99416.56;2088923;28;20490;-54
2022/03/12 00:30:49;;;;;;;;;;;;;;;17.67;58.04;99421.03;2089239;28;19927;-55
2022/03/12 00:31:53;;;;;;;;;;;;;;;17.67;58.14;99416.41;2085921;28;19969;-56
2022/03/12 00:32:54;;;;;;;;;;;;;;;17.66;58.28;99411.13;2089468;28;19952;-56
2022/03/12 00:33:55;;;;;;;;;;;;;;;17.66;57.94;99414.69;2090544;28;19920;-56
2022/03/12 00:34:55;;;;;;;;;;;;;;;17.66;58.18;99416.56;2092713;28;20006;-56
2022/03/12 00:35:56;;;;;;;;;;;;;;;17.68;58.23;99417.28;2089666;28;20003;-57
2022/03/12 00:36:57;;;;;;;;;;;;;;;17.67;58.02;99415.56;2094157;28;19977;-56
2022/03/12 00:37:57;;;;;;;;;;;;;;;17.67;58.11;99418.28;2090323;28;19964;-56
2022/03/12 00:38:57;;;;;;;;;;;;;;;17.66;58.03;99420.13;2091227;28;19967;-56
2022/03/12 00:39:58;;;;;;;;;;;;;;;17.66;57.85;99419.28;2086199;28;20132;-56
2022/03/12 00:41:00;;;;;;;;;;;;;;;17.66;58.00;99420.13;2091737;28;19920;-56
2022/03/12 00:42:00;;;;;;;;;;;;;;;17.67;57.98;99413.69;2094808;28;20270;-56
2022/03/12 00:43:01;;;;;;;;;;;;;;;17.68;57.97;99417.28;2088434;28;20430;-56
2022/03/12 00:44:02;;;;;;;;;;;;;;;17.71;57.96;99414.22;2094077;28;19920;-55
2022/03/12 00:45:02;;;;;;;;;;;;;;;17.72;57.75;99418.69;2091643;28;19912;-56
2022/03/12 00:46:05;;;;;;;;;;;;;;;17.73;58.00;99404.03;2091508;28;19923;-55
2022/03/12 00:47:05;;;;;;;;;;;;;;;17.74;57.72;99412.06;2090149;28;19947;-56
2022/03/12 00:48:06;;;;;;;;;;;;;;;17.75;57.80;99410.19;2081029;28;19963;-55
2022/03/12 00:49:07;;;;;;;;;;;;;;;17.76;57.59;99406.44;2084795;28;19968;-55
2022/03/12 00:50:07;;;;;;;;;;;;;;;17.77;57.66;99416.34;2093359;28;19985;-55
2022/03/12 00:51:08;;;;;;;;;;;;;;;17.77;57.61;99406.28;2093712;28;19920;-55
2022/03/12 00:52:09;;;;;;;;;;;;;;;17.78;57.55;99404.41;2084248;28;19928;-55
2022/03/12 00:53:09;;;;;;;;;;;;;;;17.79;57.64;99414.31;2080619;28;19927;-55
2022/03/12 00:54:10;;;;;;;;;;;;;;;17.80;57.52;99410.59;2093540;28;19973;-54
2022/03/12 00:55:10;;;;;;;;;;;;;;;17.81;57.57;99414.16;2085845;28;19913;-55
2022/03/12 00:56:11;;;;;;;;;;;;;;;17.82;57.42;99407.72;2088624;28;19943;-55
2022/03/12 00:57:12;;;;;;;;;;;;;;;17.82;57.58;99411.28;2088123;28;20652;-55
2022/03/12 00:58:12;;;;;;;;;;;;;;;17.82;57.54;99407.72;2091101;28;19920;-54
2022/03/12 00:59:12;;;;;;;;;;;;;;;17.82;57.69;99407.72;2095592;28;20303;-55
2022/03/12 01:00:18;;;;;;;;;;;;;;;17.81;57.71;99404.16;2090396;28;19951;-55
2022/03/12 01:01:18;;;;;;;;;;;;;;;17.81;57.79;99400.53;2090780;28;19912;-56
2022/03/12 01:02:19;;;;;;;;;;;;;;;17.81;57.75;99401.41;2085416;28;19914;-55
2022/03/12 01:03:19;;;;;;;;;;;;;;;17.83;57.68;99403.97;2086250;28;19920;-56
2022/03/12 01:04:20;;;;;;;;;;;;;;;17.83;57.55;99404.81;2089723;28;19949;-55
2022/03/12 01:05:24;;;;;;;;;;;;;;;17.84;57.56;99398.38;2084904;28;19912;-56
2022/03/12 01:06:24;;;;;;;;;;;;;;;17.79;57.55;99398.81;2087138;28;19916;-56
2022/03/12 01:07:24;;;;;;;;;;;;;;;17.78;57.43;99396.22;2095550;28;19916;-56
2022/03/12 01:08:26;;;;;;;;;;;;;;;17.74;57.62;99400.31;2087907;28;20173;-55
2022/03/12 01:09:26;;;;;;;;;;;;;;;17.71;57.32;99396.03;2092950;28;19993;-56
2022/03/12 01:10:26;;;;;;;;;;;;;;;17.68;57.38;99398.19;2086848;28;19905;-56
2022/03/12 01:11:27;;;;;;;;;;;;;;;17.66;57.35;99397.50;2088687;28;19925;-56
2022/03/12 01:12:27;;;;;;;;;;;;;;;17.64;57.48;99391.34;2088296;28;19919;-55
2022/03/12 01:13:28;;;;;;;;;;;;;;;17.61;57.56;99399.84;2088941;28;20026;-56
2022/03/12 01:14:29;;;;;;;;;;;;;;;17.60;57.62;99403.59;2091524;28;19951;-56
2022/03/12 01:15:32;;;;;;;;;;;;;;;17.58;57.50;99401.84;2090733;28;20385;-57
2022/03/12 01:16:35;;;;;;;;;;;;;;;17.58;57.43;99398.28;2087982;28;19928;-56
2022/03/12 01:17:35;;;;;;;;;;;;;;;17.56;57.52;99392.13;2079386;28;19939;-56
2022/03/12 01:18:37;;;;;;;;;;;;;;;17.56;57.35;99395.72;2081084;28;19913;-56
2022/03/12 01:19:38;;;;;;;;;;;;;;;17.55;57.43;99394.00;2091268;28;20010;-56
2022/03/12 01:20:40;;;;;;;;;;;;;;;17.53;57.44;99387.84;2091907;28;19913;-56
2022/03/12 01:21:40;;;;;;;;;;;;;;;17.54;57.37;99385.97;2089469;28;19924;-56
2022/03/12 01:22:41;;;;;;;;;;;;;;;17.54;57.60;99389.56;2091190;28;19920;-56
2022/03/12 01:23:42;;;;;;;;;;;;;;;17.53;57.53;99392.44;2094355;28;19920;-56
2022/03/12 01:24:42;;;;;;;;;;;;;;;17.53;57.50;99387.84;2092139;28;19963;-56
2022/03/12 01:25:43;;;;;;;;;;;;;;;17.52;57.43;99386.16;2087881;28;19931;-55
2022/03/12 01:26:43;;;;;;;;;;;;;;;17.52;57.32;99388.03;2079140;28;19925;-56
2022/03/12 01:27:43;;;;;;;;;;;;;;;17.52;57.30;99388.88;2081762;28;20543;-55
2022/03/12 01:28:45;;;;;;;;;;;;;;;17.51;57.41;99386.28;2082563;28;19976;-56
2022/03/12 01:29:45;;;;;;;;;;;;;;;17.53;57.34;99393.28;2079352;28;19924;-56
2022/03/12 01:30:45;;;;;;;;;;;;;;;17.51;57.30;99387.13;2089350;28;19969;-56
2022/03/12 01:31:46;;;;;;;;;;;;;;;17.51;57.47;99389.00;2090522;28;20259;-56
2022/03/12 01:32:46;;;;;;;;;;;;;;;17.51;57.35;99380.84;2089497;28;19921;-55
2022/03/12 01:33:46;;;;;;;;;;;;;;;17.51;57.61;99389.88;2093379;28;19931;-56
2022/03/12 01:34:47;;;;;;;;;;;;;;;17.51;57.38;99387.13;2089496;28;20545;-56
2022/03/12 01:35:47;;;;;;;;;;;;;;;17.50;57.46;99377.25;2090330;28;20149;-56
2022/03/12 01:36:47;;;;;;;;;;;;;;;17.51;57.58;99384.41;2085657;28;19925;-56
2022/03/12 01:37:48;;;;;;;;;;;;;;;17.50;57.56;99377.25;2087383;28;20451;-56
2022/03/12 01:38:50;;;;;;;;;;;;;;;17.50;57.53;99382.72;2089845;28;19921;-56
2022/03/12 01:39:50;;;;;;;;;;;;;;;17.49;57.29;99383.75;2090827;28;19921;-55
2022/03/12 01:40:52;;;;;;;;;;;;;;;17.49;57.42;99381.00;2086536;28;20759;-56
2022/03/12 01:41:53;;;;;;;;;;;;;;;17.49;57.52;99386.47;2088099;28;20907;-55
2022/03/12 01:42:53;;;;;;;;;;;;;;;17.49;57.52;99388.31;2094579;28;19924;-57
2022/03/12 01:43:54;;;;;;;;;;;;;;;17.48;57.37;99384.72;2097688;28;19920;-56
2022/03/12 01:44:55;;;;;;;;;;;;;;;17.46;57.57;99375.84;2091030;28;20500;-56
2022/03/12 01:45:56;;;;;;;;;;;;;;;17.47;57.44;99380.31;2089196;28;19904;-56
2022/03/12 01:46:56;;;;;;;;;;;;;;;17.47;57.47;99387.63;2091300;28;19912;-56
2022/03/12 01:47:57;;;;;;;;;;;;;;;17.46;57.54;99378.59;2092270;28;19908;-55
2022/03/12 01:48:59;;;;;;;;;;;;;;;17.45;57.45;99374.16;2091747;28;19926;-56
2022/03/12 01:50:00;;;;;;;;;;;;;;;17.45;57.46;99378.75;2090113;28;20350;-56
2022/03/12 01:51:00;;;;;;;;;;;;;;;17.45;57.52;99378.75;2088461;28;19931;-56
2022/03/12 01:52:00;;;;;;;;;;;;;;;17.44;57.28;99372.47;2079570;28;19917;-57
2022/03/12 01:53:02;;;;;;;;;;;;;;;17.44;57.52;99375.19;2081137;28;19920;-56
2022/03/12 01:54:03;;;;;;;;;;;;;;;17.44;57.55;99367.00;2092489;28;20232;-56
2022/03/12 01:55:05;;;;;;;;;;;;;;;17.44;57.54;99375.19;2084790;28;20017;-56
2022/03/12 01:56:06;;;;;;;;;;;;;;;17.43;57.47;99376.19;2091610;28;19916;-57
2022/03/12 01:57:06;;;;;;;;;;;;;;;17.44;57.36;99371.56;2090575;28;20287;-56
2022/03/12 01:58:07;;;;;;;;;;;;;;;17.43;57.52;99368.00;2088789;28;19937;-57
2022/03/12 01:59:08;;;;;;;;;;;;;;;17.44;57.53;99375.19;2088388;28;20347;-57
2022/03/12 02:00:21;;;;;;;;;;;;;;;17.44;57.30;99371.56;2090987;28;19920;-56
2022/03/12 02:01:21;;;;;;;;;;;;;;;17.44;57.52;99374.31;2090953;28;19931;-56
2022/03/12 02:02:23;;;;;;;;;;;;;;;17.44;57.38;99366.13;2090037;28;20533;-56
2022/03/12 02:03:26;;;;;;;;;;;;;;;17.44;57.35;99371.56;2088306;28;20373;-56
2022/03/12 02:04:29;;;;;;;;;;;;;;;17.43;57.64;99365.28;2094347;28;19920;-56
2022/03/12 02:05:29;;;;;;;;;;;;;;;17.44;57.40;99371.56;2089641;28;19958;-56
2022/03/12 02:06:30;;;;;;;;;;;;;;;17.42;57.56;99363.59;2085565;28;20356;-57
2022/03/12 02:07:30;;;;;;;;;;;;;;;17.43;57.70;99367.16;2088681;28;19943;-57
2022/03/12 02:08:31;;;;;;;;;;;;;;;17.43;57.54;99365.28;2094893;28;20283;-56
2022/03/12 02:09:31;;;;;;;;;;;;;;;17.43;57.43;99364.44;2090640;28;19965;-56
2022/03/12 02:10:31;;;;;;;;;;;;;;;17.44;57.51;99374.31;2092974;28;19920;-57
2022/03/12 02:11:32;;;;;;;;;;;;;;;17.41;57.60;99372.75;2089483;28;19920;-56
2022/03/12 02:12:32;;;;;;;;;;;;;;;17.42;57.39;99368.16;2088127;28;19916;-57
2022/03/12 02:13:34;;;;;;;;;;;;;;;17.41;57.40;99371.91;2088389;28;20318;-56
2022/03/12 02:14:36;;;;;;;;;;;;;;;17.41;57.51;99366.44;2091001;28;20395;-57
2022/03/12 02:15:36;;;;;;;;;;;;;;;17.39;57.51;99358.41;2088717;28;19964;-56
2022/03/12 02:16:37;;;;;;;;;;;;;;;17.40;57.65;99359.31;2099412;28;19919;-57
2022/03/12 02:17:38;;;;;;;;;;;;;;;17.39;57.82;99358.41;2089780;28;19969;-56
2022/03/12 02:18:39;;;;;;;;;;;;;;;17.39;57.57;99363.03;2093113;28;19921;-57
2022/03/12 02:19:40;;;;;;;;;;;;;;;17.39;57.80;99368.47;2090713;28;19920;-56
2022/03/12 02:20:40;;;;;;;;;;;;;;;17.38;57.75;99367.63;2086316;28;19927;-57
2022/03/12 02:21:43;;;;;;;;;;;;;;;17.38;57.59;99366.78;2089566;28;20362;-56
2022/03/12 02:22:45;;;;;;;;;;;;;;;17.37;57.81;99363.19;2090145;28;19920;-55
2022/03/12 02:23:48;;;;;;;;;;;;;;;17.36;57.94;99358.75;2087818;28;19917;-56
2022/03/12 02:24:48;;;;;;;;;;;;;;;17.35;57.73;99362.50;2087305;28;19919;-57
2022/03/12 02:25:49;;;;;;;;;;;;;;;17.36;57.92;99364.19;2091132;28;19916;-56
2022/03/12 02:26:50;;;;;;;;;;;;;;;17.35;57.58;99363.34;2097413;28;20211;-57
2022/03/12 02:27:50;;;;;;;;;;;;;;;17.36;57.84;99358.75;2089258;28;19923;-57
2022/03/12 02:28:50;;;;;;;;;;;;;;;17.36;57.93;99361.47;2092181;28;20351;-57
2022/03/12 02:29:56;;;;;;;;;;;;;;;17.36;57.84;99364.19;2097299;28;19916;-56
2022/03/12 02:30:58;;;;;;;;;;;;;;;17.35;57.85;99362.50;2091340;28;20005;-56
2022/03/12 02:32:04;;;;;;;;;;;;;;;17.36;57.77;99364.19;2091197;28;19951;-56
2022/03/12 02:33:04;;;;;;;;;;;;;;;17.35;57.80;99366.06;2088756;28;19920;-56
2022/03/12 02:34:10;;;;;;;;;;;;;;;17.36;57.44;99359.59;2085561;28;20013;-56
2022/03/12 02:35:12;;;;;;;;;;;;;;;17.36;57.94;99361.47;2085982;28;20427;-56
2022/03/12 02:36:13;;;;;;;;;;;;;;;17.37;57.59;99365.91;2088489;28;20532;-57
2022/03/12 02:37:41;;;;;;;;;;;;;;;17.36;57.68;99362.31;2089729;28;19977;-57
2022/03/12 02:38:36;;;;;;;;;;;;;;;17.36;57.80;99362.31;2095206;28;19927;-56
2022/03/12 02:39:38;;;;;;;;;;;;;;;17.37;57.71;99363.19;2078660;28;19971;-57
2022/03/12 02:40:41;;;;;;;;;;;;;;;17.37;57.76;99357.75;2090074;28;20012;-57
2022/03/12 02:41:42;;;;;;;;;;;;;;;17.36;57.67;99359.59;2091822;28;19985;-57
2022/03/12 02:42:43;;;;;;;;;;;;;;;17.37;57.59;99363.19;2098284;28;19927;-56
2022/03/12 02:43:46;;;;;;;;;;;;;;;17.38;57.70;99361.31;2092651;28;19951;-57
2022/03/12 02:44:47;;;;;;;;;;;;;;;17.36;57.70;99359.59;2090114;28;20365;-57
2022/03/12 02:45:51;;;;;;;;;;;;;;;17.36;57.50;99359.59;2092276;28;19920;-57
2022/03/12 02:47:11;;;;;;;;;;;;;;;17.37;57.75;99357.75;2093775;28;20274;-56
2022/03/12 02:48:12;;;;;;;;;;;;;;;17.36;57.78;99358.75;2090295;28;19963;-56
2022/03/12 02:49:15;;;;;;;;;;;;;;;17.38;57.75;99364.03;2098298;28;19931;-56
2022/03/12 02:50:15;;;;;;;;;;;;;;;17.37;57.74;99365.91;2094855;28;19923;-56
2022/03/12 02:51:16;;;;;;;;;;;;;;;17.37;57.70;99360.47;2090137;28;19966;-56
2022/03/12 02:52:17;;;;;;;;;;;;;;;17.37;57.79;99360.47;2093904;28;19982;-56
2022/03/12 02:53:17;;;;;;;;;;;;;;;17.38;57.61;99364.91;2084918;28;20370;-56
2022/03/12 02:54:18;;;;;;;;;;;;;;;17.37;57.84;99371.38;2087009;28;19920;-56
2022/03/12 02:55:19;;;;;;;;;;;;;;;17.38;57.89;99364.03;2085707;28;19920;-56
2022/03/12 02:56:19;;;;;;;;;;;;;;;17.37;57.92;99363.19;2083438;28;19926;-56
2022/03/12 02:57:23;;;;;;;;;;;;;;;17.37;57.92;99360.47;2092153;28;19928;-56
2022/03/12 02:58:24;;;;;;;;;;;;;;;17.36;57.96;99369.63;2084274;28;20246;-56
2022/03/12 02:59:25;;;;;;;;;;;;;;;17.36;57.84;99364.19;2081345;28;19920;-56
2022/03/12 03:00:25;;;;;;;;;;;;;;;17.38;57.82;99367.63;2095749;28;19920;-56
2022/03/12 03:01:26;;;;;;;;;;;;;;;17.37;57.80;99355.03;2095296;28;20572;-56
2022/03/12 03:02:32;;;;;;;;;;;;;;;17.36;57.72;99369.63;2094954;28;19920;-56
2022/03/12 03:03:39;;;;;;;;;;;;;;;17.37;57.80;99360.47;2091880;28;19926;-55
2022/03/12 03:04:41;;;;;;;;;;;;;;;17.36;57.75;99361.47;2097495;28;19919;-56
2022/03/12 03:05:46;;;;;;;;;;;;;;;17.37;57.81;99355.03;2093971;28;19920;-56
2022/03/12 03:06:47;;;;;;;;;;;;;;;17.37;57.78;99360.47;2095401;28;20305;-56
2022/03/12 03:07:51;;;;;;;;;;;;;;;17.37;58.02;99360.47;2085773;28;19955;-56
2022/03/12 03:08:51;;;;;;;;;;;;;;;17.36;57.64;99364.19;2091518;28;19913;-56
2022/03/12 03:09:52;;;;;;;;;;;;;;;17.37;57.59;99357.75;2092815;28;19959;-56
2022/03/12 03:10:54;;;;;;;;;;;;;;;17.37;57.74;99365.91;2085961;28;19955;-56
2022/03/12 03:11:54;;;;;;;;;;;;;;;17.36;57.93;99358.75;2093022;28;19931;-56
2022/03/12 03:12:55;;;;;;;;;;;;;;;17.38;57.91;99358.59;2085627;28;19920;-56
2022/03/12 03:13:55;;;;;;;;;;;;;;;17.37;57.83;99365.91;2091030;28;20339;-57
2022/03/12 03:14:55;;;;;;;;;;;;;;;17.36;57.66;99358.75;2094550;28;19989;-56
2022/03/12 03:15:59;;;;;;;;;;;;;;;17.36;57.84;99361.47;2090133;28;19920;-57
2022/03/12 03:17:00;;;;;;;;;;;;;;;17.35;57.70;99365.22;2096333;28;20393;-56
2022/03/12 03:18:05;;;;;;;;;;;;;;;17.34;57.83;99364.38;2082811;28;19932;-56
2022/03/12 03:19:06;;;;;;;;;;;;;;;17.35;58.05;99362.50;2084035;28;20568;-56
2022/03/12 03:20:06;;;;;;;;;;;;;;;17.34;58.01;99364.38;2093047;28;19920;-56
2022/03/12 03:21:12;;;;;;;;;;;;;;;17.33;58.06;99362.63;2086308;28;19924;-56
2022/03/12 03:22:12;;;;;;;;;;;;;;;17.34;57.87;99367.09;2091085;28;19931;-56
2022/03/12 03:23:13;;;;;;;;;;;;;;;17.34;57.98;99367.09;2090684;28;20516;-56
2022/03/12 03:24:13;;;;;;;;;;;;;;;17.34;58.07;99366.22;2091983;28;19916;-55
2022/03/12 03:25:13;;;;;;;;;;;;;;;17.33;58.12;99364.50;2092017;28;19965;-56
2022/03/12 03:26:18;;;;;;;;;;;;;;;17.33;57.90;99369.97;2090343;28;19965;-56
2022/03/12 03:27:19;;;;;;;;;;;;;;;17.32;58.23;99368.22;2075967;28;20295;-56
2022/03/12 03:28:19;;;;;;;;;;;;;;;17.32;58.22;99363.66;2081583;28;19986;-56
2022/03/12 03:29:21;;;;;;;;;;;;;;;17.31;58.15;99358.34;2090284;28;19913;-56
2022/03/12 03:30:21;;;;;;;;;;;;;;;17.31;58.17;99361.09;2086670;28;20045;-56
2022/03/12 03:31:22;;;;;;;;;;;;;;;17.31;57.85;99355.63;2086881;28;20222;-56
2022/03/12 03:32:22;;;;;;;;;;;;;;;17.31;57.86;99355.63;2090022;28;20013;-56
2022/03/12 03:33:23;;;;;;;;;;;;;;;17.32;58.08;99354.59;2089406;28;20308;-56
2022/03/12 03:34:24;;;;;;;;;;;;;;;17.31;58.01;99361.94;2089059;28;19916;-57
2022/03/12 03:35:24;;;;;;;;;;;;;;;17.31;57.98;99356.47;2088804;28;20438;-56
2022/03/12 03:36:25;;;;;;;;;;;;;;;17.31;57.95;99355.63;2090922;28;19917;-56
2022/03/12 03:37:25;;;;;;;;;;;;;;;17.32;58.16;99362.78;2093160;28;19924;-56
2022/03/12 03:38:25;;;;;;;;;;;;;;;17.31;57.98;99361.09;2088949;28;19908;-56
2022/03/12 03:39:26;;;;;;;;;;;;;;;17.32;57.92;99360.06;2088956;28;20717;-56
2022/03/12 03:40:26;;;;;;;;;;;;;;;17.32;58.16;99362.78;2093568;28;19916;-57
2022/03/12 03:41:26;;;;;;;;;;;;;;;17.32;58.00;99362.78;2091182;28;19916;-56
2022/03/12 03:42:27;;;;;;;;;;;;;;;17.31;58.12;99366.53;2097016;28;19995;-57
2022/03/12 03:43:27;;;;;;;;;;;;;;;17.31;58.14;99356.47;2092697;28;19916;-57
2022/03/12 03:44:28;;;;;;;;;;;;;;;17.32;58.17;99357.34;2090932;28;20439;-57
2022/03/12 03:45:29;;;;;;;;;;;;;;;17.31;57.90;99363.81;2087327;28;19916;-57
2022/03/12 03:46:29;;;;;;;;;;;;;;;17.31;57.98;99361.09;2089252;28;19984;-57
2022/03/12 03:47:29;;;;;;;;;;;;;;;17.28;58.07;99361.41;2092456;28;20031;-56
2022/03/12 03:48:32;;;;;;;;;;;;;;;17.28;57.98;99355.97;2093015;28;19920;-58
2022/03/12 03:49:32;;;;;;;;;;;;;;;17.28;58.18;99355.97;2091912;28;20065;-57
2022/03/12 03:50:33;;;;;;;;;;;;;;;17.28;58.12;99356.81;2090211;28;19928;-58
2022/03/12 03:51:37;;;;;;;;;;;;;;;17.28;58.14;99364.13;2088541;28;20173;-57
2022/03/12 03:52:37;;;;;;;;;;;;;;;17.29;58.17;99368.53;2087982;28;19923;-57
2022/03/12 03:53:38;;;;;;;;;;;;;;;17.28;58.04;99364.13;2093729;28;20692;-57
2022/03/12 03:54:42;;;;;;;;;;;;;;;17.28;58.33;99364.13;2088433;28;19924;-57
2022/03/12 03:55:42;;;;;;;;;;;;;;;17.27;58.11;99366.00;2090749;28;19923;-57
2022/03/12 03:56:43;;;;;;;;;;;;;;;17.26;58.13;99364.28;2093358;28;20254;-57
2022/03/12 03:57:43;;;;;;;;;;;;;;;17.27;57.96;99362.41;2091952;28;19930;-57
2022/03/12 03:58:44;;;;;;;;;;;;;;;17.27;58.11;99370.56;2096721;28;19928;-57
2022/03/12 03:59:44;;;;;;;;;;;;;;;17.26;58.25;99358.81;2096579;28;19915;-57
2022/03/12 04:00:51;;;;;;;;;;;;;;;17.26;58.25;99357.97;2092632;28;20306;-57
2022/03/12 04:01:52;;;;;;;;;;;;;;;17.26;58.02;99368.88;2093425;28;19962;-57
2022/03/12 04:03:02;;;;;;;;;;;;;;;17.26;58.26;99368.88;2087961;28;19920;-57
2022/03/12 04:04:02;;;;;;;;;;;;;;;17.25;57.93;99367.16;2086367;28;19931;-58
2022/03/12 04:05:02;;;;;;;;;;;;;;;17.26;58.25;99358.81;2090435;28;19931;-58
2022/03/12 04:06:04;;;;;;;;;;;;;;;17.26;58.13;99364.28;2092102;28;20817;-57
2022/03/12 04:07:05;;;;;;;;;;;;;;;17.26;58.35;99363.41;2091983;28;19920;-57
2022/03/12 04:08:07;;;;;;;;;;;;;;;17.27;58.10;99359.66;2081843;28;19927;-57
2022/03/12 04:09:07;;;;;;;;;;;;;;;17.26;58.11;99361.53;2077318;28;19978;-57
2022/03/12 04:10:10;;;;;;;;;;;;;;;17.27;58.14;99367.84;2090773;28;19912;-57
2022/03/12 04:11:13;;;;;;;;;;;;;;;17.26;58.12;99367.00;2079383;28;19947;-57
2022/03/12 04:12:13;;;;;;;;;;;;;;;17.26;58.14;99367.00;2083119;28;20231;-57
2022/03/12 04:13:18;;;;;;;;;;;;;;;17.27;58.19;99362.41;2076609;28;19920;-57
2022/03/12 04:14:18;;;;;;;;;;;;;;;17.26;58.26;99357.97;2084019;28;20246;-57
2022/03/12 04:15:18;;;;;;;;;;;;;;;17.26;58.38;99360.69;2081507;28;19928;-57
2022/03/12 04:16:19;;;;;;;;;;;;;;;17.27;58.29;99359.66;2078203;28;19921;-56
2022/03/12 04:17:21;;;;;;;;;;;;;;;17.25;58.07;99367.16;2080080;28;20554;-57
2022/03/12 04:18:22;;;;;;;;;;;;;;;17.25;58.23;99367.16;2086724;28;19975;-57
2022/03/12 04:19:22;;;;;;;;;;;;;;;17.24;58.15;99358.13;2086967;28;20372;-56
2022/03/12 04:20:23;;;;;;;;;;;;;;;17.24;58.22;99360.84;2082670;28;19959;-57
2022/03/12 04:21:23;;;;;;;;;;;;;;;17.24;58.29;99360.00;2082813;28;19920;-57
2022/03/12 04:22:24;;;;;;;;;;;;;;;17.24;58.42;99368.16;2085152;28;19920;-56
2022/03/12 04:23:27;;;;;;;;;;;;;;;17.23;58.38;99359.13;2083810;28;19920;-56
2022/03/12 04:24:28;;;;;;;;;;;;;;;17.22;58.43;99362.88;2081292;28;19990;-55
2022/03/12 04:25:31;;;;;;;;;;;;;;;17.23;58.16;99363.75;2079429;28;19909;-55
2022/03/12 04:26:35;;;;;;;;;;;;;;;17.23;58.36;99363.75;2080865;28;19943;-55
2022/03/12 04:27:35;;;;;;;;;;;;;;;17.22;58.26;99357.44;2081800;28;20275;-57
2022/03/12 04:28:36;;;;;;;;;;;;;;;17.22;58.36;99364.72;2081342;28;19916;-56
2022/03/12 04:29:36;;;;;;;;;;;;;;;17.22;58.35;99365.63;2077095;28;20572;-56
2022/03/12 04:30:38;;;;;;;;;;;;;;;17.22;58.31;99362.00;2082317;28;19917;-57
2022/03/12 04:31:38;;;;;;;;;;;;;;;17.22;58.55;99360.16;2085917;28;19943;-57
2022/03/12 04:32:39;;;;;;;;;;;;;;;17.22;58.28;99364.72;2077202;28;19917;-56
2022/03/12 04:33:40;;;;;;;;;;;;;;;17.22;58.38;99356.56;2080645;28;20234;-57
2022/03/12 04:34:40;;;;;;;;;;;;;;;17.23;58.48;99359.13;2084822;28;20464;-57
2022/03/12 04:35:41;;;;;;;;;;;;;;;17.24;58.27;99366.28;2082071;28;19924;-56
2022/03/12 04:36:42;;;;;;;;;;;;;;;17.24;58.44;99354.53;2078053;28;20401;-56
2022/03/12 04:37:43;;;;;;;;;;;;;;;17.25;58.22;99362.56;2085703;28;19920;-57
2022/03/12 04:38:43;;;;;;;;;;;;;;;17.26;58.12;99363.41;2080644;28;19917;-57
2022/03/12 04:39:43;;;;;;;;;;;;;;;17.26;58.23;99363.41;2086300;28;19916;-56
2022/03/12 04:40:45;;;;;;;;;;;;;;;17.28;58.14;99366.84;2078973;28;19983;-56
2022/03/12 04:41:46;;;;;;;;;;;;;;;17.28;58.31;99369.56;2079134;28;19960;-56
2022/03/12 04:42:46;;;;;;;;;;;;;;;17.26;58.14;99364.28;2083829;28;19937;-56
2022/03/12 04:43:48;;;;;;;;;;;;;;;17.28;58.12;99361.41;2082116;28;19917;-56
2022/03/12 04:44:50;;;;;;;;;;;;;;;17.28;58.15;99364.13;2082410;28;19924;-55
2022/03/12 04:45:50;;;;;;;;;;;;;;;17.28;58.18;99367.69;2079042;28;19925;-57
2022/03/12 04:46:50;;;;;;;;;;;;;;;17.28;58.15;99364.13;2080425;28;20480;-56
2022/03/12 04:47:51;;;;;;;;;;;;;;;17.26;58.14;99369.72;2086086;28;20230;-56
2022/03/12 04:48:51;;;;;;;;;;;;;;;17.28;58.02;99361.41;2088991;28;19936;-56
2022/03/12 04:49:52;;;;;;;;;;;;;;;17.27;58.20;99365.13;2086729;28;20463;-56
2022/03/12 04:50:53;;;;;;;;;;;;;;;17.27;58.15;99365.13;2083661;28;19912;-56
2022/03/12 04:51:53;;;;;;;;;;;;;;;17.26;58.39;99360.69;2081534;28;19927;-55
2022/03/12 04:52:56;;;;;;;;;;;;;;;17.27;57.97;99367.84;2082297;28;19931;-56
2022/03/12 04:53:57;;;;;;;;;;;;;;;17.25;58.04;99367.16;2079134;28;19924;-56
2022/03/12 04:54:58;;;;;;;;;;;;;;;17.25;58.18;99367.16;2083867;28;19916;-56
2022/03/12 04:55:58;;;;;;;;;;;;;;;17.24;57.94;99368.16;2080166;28;20314;-61
2022/03/12 04:56:59;;;;;;;;;;;;;;;17.25;57.98;99372.63;2080368;28;19924;-55
2022/03/12 04:57:59;;;;;;;;;;;;;;;17.24;58.37;99360.00;2080436;28;19916;-56
2022/03/12 04:58:59;;;;;;;;;;;;;;;17.24;58.24;99369.00;2078965;28;19916;-56
2022/03/12 05:00:03;;;;;;;;;;;;;;;17.23;58.43;99369.19;2081297;28;19931;-56
2022/03/12 05:01:06;;;;;;;;;;;;;;;17.24;58.43;99365.44;2083385;28;20037;-56
2022/03/12 05:02:09;;;;;;;;;;;;;;;17.24;58.15;99362.72;2085506;28;19946;-56
2022/03/12 05:03:11;;;;;;;;;;;;;;;17.24;58.36;99360.00;2084238;28;20025;-56
2022/03/12 05:04:11;;;;;;;;;;;;;;;17.24;58.08;99362.72;2083357;28;19948;-57
2022/03/12 05:05:12;;;;;;;;;;;;;;;17.24;58.36;99354.53;2082402;28;19928;-57
2022/03/12 05:06:13;;;;;;;;;;;;;;;17.24;58.15;99360.84;2084502;28;20319;-56
2022/03/12 05:07:14;;;;;;;;;;;;;;;17.25;58.32;99369.91;2078807;28;19928;-56
2022/03/12 05:08:16;;;;;;;;;;;;;;;17.24;58.18;99370.88;2083462;28;19926;-56
2022/03/12 05:09:16;;;;;;;;;;;;;;;17.24;58.16;99366.28;2083853;28;19927;-55
2022/03/12 05:10:17;;;;;;;;;;;;;;;17.25;58.30;99373.47;2084144;28;20343;-56
2022/03/12 05:11:18;;;;;;;;;;;;;;;17.25;58.29;99361.72;2085483;28;20057;-56
2022/03/12 05:12:18;;;;;;;;;;;;;;;17.25;58.16;99367.16;2092609;28;19926;-56
2022/03/12 05:13:23;;;;;;;;;;;;;;;17.25;58.32;99365.28;2084211;28;19920;-56
2022/03/12 05:14:23;;;;;;;;;;;;;;;17.25;58.29;99361.72;2086770;28;19927;-56
2022/03/12 05:15:24;;;;;;;;;;;;;;;17.25;58.35;99361.72;2086142;28;19916;-57
2022/03/12 05:16:24;;;;;;;;;;;;;;;17.25;58.44;99356.28;2087729;28;20437;-57
2022/03/12 05:17:26;;;;;;;;;;;;;;;17.24;58.11;99365.44;2091822;28;20380;-55
2022/03/12 05:18:26;;;;;;;;;;;;;;;17.24;58.35;99365.44;2087894;28;19920;-55
2022/03/12 05:19:27;;;;;;;;;;;;;;;17.24;58.23;99362.72;2092382;28;19931;-56